This is the latest recevied weather packets stored in our database for station/object WABO. If no packets are shown the sender has not sent any weather packets the latest 10 day(s).
| Time | Temp. | Humidity | Pressure | Rain* | Wind** | Luminosity | Snow |
|---|---|---|---|---|---|---|---|
| 1787579504 | 25° C | 89% | 1012 hPa | 0 mm | - | - | - |
| 1787577437 | 25° C | 89% | 1012 hPa | 0 mm | - | - | - |
| 1787575451 | 26.11° C | 84% | 1012 hPa | 0 mm | - | - | - |
| 1787571332 | 27.22° C | 79% | 1011 hPa | 0 mm | - | - | - |
| 1787569343 | 27.22° C | 79% | 1011 hPa | 0 mm | - | - | - |
| 1787567339 | 28.89° C | 70% | 1010 hPa | 0 mm | - | - | - |
| 1787565365 | 28.89° C | 70% | 1010 hPa | 0 mm | - | - | - |
| 1787563386 | 30° C | 66% | 1010 hPa | 0 mm | - | - | - |
| 1787561338 | 32.22° C | 59% | 1009 hPa | 0 mm | - | - | - |
| 1787557700 | 32.22° C | 59% | 1009 hPa | 0 mm | - | - | - |
| 1787555371 | 32.22° C | 59% | 1009 hPa | 0 mm | - | - | - |
| 1787553329 | 32.22° C | 59% | 1010 hPa | 0 mm | - | - | - |
| 1787551202 | 32.22° C | 59% | 1010 hPa | 0 mm | - | - | - |
| 1787549226 | 32.78° C | 56% | 1010 hPa | 0 mm | - | - | - |
| 1787547387 | 32.78° C | 53% | 1011 hPa | 0 mm | - | - | - |
| 1787545273 | 32.78° C | 53% | 1011 hPa | 0 mm | - | - | - |
| 1787543298 | 32.22° C | 59% | 1012 hPa | 0 mm | - | - | - |
| 1787541323 | 32.22° C | 59% | 1012 hPa | 0 mm | - | - | - |
| 1787539343 | 32.22° C | 56% | 1013 hPa | 0 mm | - | - | - |
| 1787537366 | 32.22° C | 56% | 1013 hPa | 0 mm | - | - | - |
| 1787535391 | 31.11° C | 59% | 1013 hPa | 0 mm | - | - | - |
| 1787533406 | 31.11° C | 59% | 1013 hPa | 0 mm | - | - | - |
| 1787531430 | 28.89° C | 66% | 1013 hPa | 0 mm | - | - | - |
| 1787529453 | 28.89° C | 66% | 1013 hPa | 0 mm | - | - | - |
| 1787527473 | 25° C | 74% | 1013 hPa | 0 mm | - | - | - |
* Rain latest hour (hover to see other rain measurements)
** Current wind speed in m/s (hover to see current wind gust speed)